createdAt,value
2019-02-21T00:02:46.005Z,78.57
2019-02-21T00:07:50.397Z,78.21
2019-02-21T00:12:54.746Z,77.46
2019-02-21T00:17:59.104Z,78.22
2019-02-21T00:23:03.497Z,78.86
2019-02-21T00:28:07.875Z,79.18
2019-02-21T00:33:12.251Z,79.17
2019-02-21T00:38:16.615Z,80.16
2019-02-21T00:43:21.000Z,77.98
2019-02-21T00:48:25.374Z,79.63
2019-02-21T00:53:29.760Z,80.11
2019-02-21T00:58:34.153Z,81.10
2019-02-21T01:03:38.534Z,78.90
2019-02-21T01:08:43.010Z,79.80
2019-02-21T01:13:47.410Z,78.24
2019-02-21T01:18:51.770Z,78.75
2019-02-21T01:23:56.150Z,81.51
2019-02-21T01:29:00.510Z,81.55
2019-02-21T01:34:04.957Z,81.39
2019-02-21T01:39:09.310Z,80.90
2019-02-21T01:44:14.511Z,81.95
2019-02-21T01:49:18.859Z,81.50
2019-02-21T01:54:23.237Z,82.28
2019-02-21T01:59:27.604Z,81.47
2019-02-21T02:04:32.001Z,81.99
2019-02-21T02:09:36.407Z,81.17
2019-02-21T02:14:42.559Z,80.89
2019-02-21T02:19:47.036Z,82.49
2019-02-21T02:24:51.412Z,80.55
2019-02-21T02:29:56.754Z,81.94
2019-02-21T02:35:01.135Z,83.16
2019-02-21T02:40:06.846Z,83.02
2019-02-21T02:45:13.617Z,82.97
2019-02-21T02:50:17.992Z,83.54
2019-02-21T02:55:22.397Z,82.61
2019-02-21T03:00:26.766Z,83.23
2019-02-21T03:10:38.996Z,82.43
2019-02-21T03:15:43.348Z,80.37
2019-02-21T03:20:47.725Z,82.24
2019-02-21T03:25:52.109Z,81.22
2019-02-21T03:30:56.494Z,84.02
2019-02-21T03:36:00.918Z,82.14
2019-02-21T03:41:05.286Z,83.15
2019-02-21T03:46:09.701Z,82.20
2019-02-21T03:51:14.078Z,83.29
2019-02-21T03:56:18.452Z,83.17
2019-02-21T04:01:23.789Z,82.61
2019-02-21T04:06:28.138Z,82.62
2019-02-21T04:11:32.516Z,82.66
2019-02-21T04:16:36.913Z,83.59
2019-02-21T04:21:41.285Z,82.70
2019-02-21T04:26:45.689Z,82.17
2019-02-21T04:31:50.066Z,82.94
2019-02-21T04:36:54.464Z,82.20
2019-02-21T04:41:59.652Z,81.77
2019-02-21T04:47:04.005Z,84.86
2019-02-21T04:52:08.370Z,82.39
2019-02-21T04:57:12.744Z,83.17
2019-02-21T05:02:28.175Z,83.59
2019-02-21T05:07:23.192Z,83.60
2019-02-21T05:12:27.594Z,82.72
2019-02-21T05:17:31.964Z,82.50
2019-02-21T05:22:36.429Z,81.69
2019-02-21T05:27:42.282Z,82.77
2019-02-21T05:32:48.320Z,82.77
2019-02-21T05:38:10.323Z,83.83
2019-02-21T05:43:17.460Z,83.47
2019-02-21T05:48:35.708Z,82.73
2019-02-21T05:53:41.737Z,83.13
2019-02-21T05:58:47.786Z,82.52
2019-02-21T06:04:10.143Z,82.63
2019-02-21T06:09:22.232Z,82.81
2019-02-21T06:14:37.478Z,81.98
2019-02-21T06:19:43.541Z,82.18
2019-02-21T06:24:52.491Z,81.04
2019-02-21T06:29:58.503Z,80.64
2019-02-21T06:35:03.248Z,81.03
2019-02-21T06:40:08.143Z,81.78
2019-02-21T06:45:13.599Z,80.37
2019-02-21T06:50:26.369Z,80.56
2019-02-21T06:55:24.270Z,79.79
2019-02-21T07:00:28.641Z,80.44
2019-02-21T07:05:33.037Z,79.90
2019-02-21T07:10:37.387Z,80.84
2019-02-21T07:15:41.817Z,79.39
2019-02-21T07:20:46.164Z,80.22
2019-02-21T07:25:51.931Z,81.13
2019-02-21T07:30:56.347Z,81.57
2019-02-21T07:36:00.702Z,80.35
2019-02-21T07:41:05.155Z,79.08
2019-02-21T07:46:09.500Z,78.39
2019-02-21T07:51:14.015Z,77.75
2019-02-21T07:56:18.418Z,77.82
2019-02-21T08:01:22.791Z,78.51
2019-02-21T08:06:27.145Z,79.15
2019-02-21T08:11:31.562Z,78.43
2019-02-21T08:16:35.915Z,78.44
2019-02-21T08:21:43.394Z,77.47
2019-02-21T08:26:47.492Z,75.84
2019-02-21T08:31:51.881Z,75.82
2019-02-21T08:36:56.422Z,75.31
2019-02-21T08:42:00.831Z,74.99
2019-02-21T08:47:05.172Z,75.77
2019-02-21T08:52:09.596Z,74.31
2019-02-21T08:57:13.978Z,74.71
2019-02-21T09:02:21.223Z,72.49
2019-02-21T09:07:25.594Z,70.53
2019-02-21T09:12:29.950Z,69.97
2019-02-21T09:17:34.396Z,69.43
2019-02-21T09:22:38.779Z,68.58
2019-02-21T09:27:43.171Z,68.31
2019-02-21T09:32:47.570Z,68.25
2019-02-21T09:37:53.422Z,68.09
2019-02-21T09:42:57.793Z,68.04
2019-02-21T09:48:02.182Z,68.10
2019-02-21T09:53:06.900Z,68.35
2019-02-21T09:58:11.320Z,68.12
2019-02-21T10:03:15.856Z,67.91
2019-02-21T10:08:21.995Z,67.38
2019-02-21T10:13:26.550Z,67.57
2019-02-21T10:18:30.989Z,66.93
2019-02-21T10:23:35.472Z,66.86
2019-02-21T10:28:39.825Z,66.80
2019-02-21T10:33:47.101Z,67.16
2019-02-21T10:38:50.321Z,67.39
2019-02-21T10:43:54.723Z,67.39
2019-02-21T10:48:59.124Z,67.56
2019-02-21T10:54:03.518Z,67.51
2019-02-21T10:59:07.872Z,68.10
2019-02-21T11:04:12.241Z,68.90
2019-02-21T11:09:21.203Z,72.45
2019-02-21T11:14:25.593Z,75.92
2019-02-21T11:19:30.034Z,75.31
2019-02-21T11:24:34.435Z,77.76
2019-02-21T11:29:38.821Z,78.28
2019-02-21T11:34:43.183Z,77.32
2019-02-21T11:39:47.516Z,76.69
2019-02-21T11:44:51.909Z,77.68
2019-02-21T11:49:56.283Z,76.56
2019-02-21T11:55:00.647Z,76.27
2019-02-21T12:00:08.221Z,75.93
2019-02-21T12:05:17.568Z,74.40
2019-02-21T12:10:18.657Z,74.40
2019-02-21T12:15:23.097Z,73.80
2019-02-21T12:20:27.690Z,73.24
2019-02-21T12:25:32.123Z,72.68
2019-02-21T12:30:36.483Z,72.28
2019-02-21T12:35:40.842Z,71.39
2019-02-21T12:40:45.201Z,71.65
2019-02-21T12:45:52.571Z,71.26
2019-02-21T12:50:55.757Z,70.02
2019-02-21T12:56:00.114Z,68.83
2019-02-21T13:01:04.755Z,68.97
2019-02-21T13:06:09.134Z,68.25
2019-02-21T13:11:13.474Z,68.46
2019-02-21T13:16:17.918Z,67.45
2019-02-21T13:21:22.359Z,67.50
2019-02-21T13:26:26.739Z,67.61
2019-02-21T13:31:31.077Z,66.79
2019-02-21T13:36:35.485Z,66.68
2019-02-21T13:41:39.936Z,66.62
2019-02-21T13:46:44.326Z,66.45
2019-02-21T13:51:48.703Z,66.07
2019-02-21T13:56:53.086Z,65.79
2019-02-21T14:01:57.479Z,66.01
2019-02-21T14:07:01.833Z,65.67
2019-02-21T14:12:06.243Z,66.01
2019-02-21T14:17:10.627Z,65.17
2019-02-21T14:22:15.054Z,65.11
2019-02-21T14:27:19.486Z,64.89
2019-02-21T14:32:23.887Z,65.11
2019-02-21T14:37:28.263Z,65.03
2019-02-21T14:42:32.664Z,64.88
2019-02-21T14:47:37.065Z,65.82
2019-02-21T14:52:41.457Z,65.74
2019-02-21T14:57:45.991Z,65.63
2019-02-21T15:02:50.435Z,65.88
2019-02-21T15:07:54.798Z,66.10
2019-02-21T15:12:59.180Z,66.51
2019-02-21T15:18:07.412Z,67.04
2019-02-21T15:23:09.619Z,67.20
2019-02-21T15:28:13.973Z,67.45
2019-02-21T15:33:18.371Z,67.66
2019-02-21T15:38:22.748Z,68.01
2019-02-21T15:43:27.101Z,68.23
2019-02-21T15:48:31.494Z,68.41
2019-02-21T15:53:35.851Z,68.78
2019-02-21T15:58:40.232Z,68.84
2019-02-21T16:03:44.595Z,68.92
2019-02-21T16:08:49.002Z,69.59
2019-02-21T16:14:02.658Z,69.67
2019-02-21T16:18:59.473Z,69.38
2019-02-21T16:24:03.894Z,69.65
2019-02-21T16:29:08.269Z,69.50
2019-02-21T16:34:12.652Z,69.12
2019-02-21T16:39:17.041Z,69.47
2019-02-21T16:44:21.391Z,69.74
2019-02-21T16:49:25.777Z,70.19
2019-02-21T16:54:30.132Z,70.08
2019-02-21T16:59:34.559Z,69.29
2019-02-21T17:04:38.939Z,69.45
2019-02-21T17:09:43.347Z,69.31
2019-02-21T17:14:47.723Z,69.63
2019-02-21T17:19:52.163Z,69.80
2019-02-21T17:24:56.580Z,71.01
2019-02-21T17:30:00.935Z,73.43
2019-02-21T17:35:08.348Z,75.48
2019-02-21T17:40:21.800Z,76.38
2019-02-21T17:45:26.243Z,76.04
2019-02-21T17:50:30.616Z,77.19
2019-02-21T17:55:35.254Z,76.00
2019-02-21T18:00:40.498Z,75.54
2019-02-21T18:05:44.883Z,74.96
2019-02-21T18:10:49.307Z,73.96
2019-02-21T18:15:53.735Z,74.60
2019-02-21T18:20:58.101Z,75.48
2019-02-21T18:26:08.667Z,76.17
2019-02-21T18:31:13.023Z,76.12
2019-02-21T18:36:17.922Z,76.27
2019-02-21T18:41:22.344Z,76.31
2019-02-21T18:46:26.712Z,76.44
2019-02-21T18:51:31.161Z,78.56
2019-02-21T18:56:35.640Z,79.35
2019-02-21T19:01:40.030Z,79.91
2019-02-21T19:06:44.422Z,81.01
2019-02-21T19:11:48.838Z,80.98
2019-02-21T19:16:53.236Z,81.98
2019-02-21T19:21:57.695Z,81.78
2019-02-21T19:27:02.070Z,81.93
2019-02-21T19:32:06.662Z,82.29
2019-02-21T19:37:11.040Z,82.54
2019-02-21T19:42:15.670Z,82.71
2019-02-21T19:47:20.115Z,82.59
2019-02-21T19:52:24.578Z,81.98
2019-02-21T19:57:29.035Z,83.66
2019-02-21T20:02:33.389Z,83.51
2019-02-21T20:07:37.741Z,83.00
2019-02-21T20:12:42.097Z,82.74
2019-02-21T20:17:46.457Z,83.42
2019-02-21T20:22:50.840Z,84.74
2019-02-21T20:27:56.263Z,84.33
2019-02-21T20:33:00.760Z,84.36
2019-02-21T20:38:05.318Z,84.19
2019-02-21T20:43:09.768Z,84.76
2019-02-21T20:48:14.212Z,86.61
2019-02-21T20:53:18.711Z,88.13
2019-02-21T20:58:23.266Z,89.03
2019-02-21T21:03:27.757Z,90.68
2019-02-21T21:08:42.505Z,88.62
2019-02-21T21:13:38.290Z,88.41
2019-02-21T21:18:42.742Z,87.05
2019-02-21T21:23:48.172Z,88.25
2019-02-21T21:28:52.485Z,88.01
2019-02-21T21:33:56.932Z,88.43
2019-02-21T21:39:01.398Z,89.60
2019-02-21T21:44:07.408Z,88.96
2019-02-21T21:49:11.784Z,88.85
2019-02-21T21:54:16.387Z,90.20
2019-02-21T21:59:20.745Z,89.82
2019-02-21T22:04:25.135Z,90.22
2019-02-21T22:09:29.535Z,89.70
2019-02-21T22:14:33.954Z,92.34
2019-02-21T22:19:38.317Z,91.85
2019-02-21T22:24:42.753Z,93.55
2019-02-21T22:29:47.153Z,94.52
2019-02-21T22:34:51.544Z,95.22
2019-02-21T22:39:55.940Z,96.82
2019-02-21T22:45:00.390Z,96.56
2019-02-21T22:50:07.373Z,96.71
2019-02-21T22:55:11.838Z,96.51
2019-02-21T23:00:22.236Z,96.21
2019-02-21T23:05:45.899Z,96.47
2019-02-21T23:10:51.145Z,96.86
2019-02-21T23:15:55.582Z,97.20
2019-02-21T23:20:59.954Z,97.28
2019-02-21T23:26:04.347Z,97.35
2019-02-21T23:31:08.731Z,97.28
2019-02-21T23:36:13.108Z,96.98
2019-02-21T23:41:17.526Z,97.22
2019-02-21T23:46:22.001Z,97.76
2019-02-21T23:51:26.405Z,97.87
2019-02-21T23:56:30.812Z,97.93
